CYNL

METAR CYNL 200000Z AUTO 11004KT 070V150 9SM FEW110 18/11 A2956 RMK AO1 SLP002
METAR
LOCATION
CYNL
DATE - TIME
200000Z
WIND
110 TRUE @ 4 KNOTS VARYING 070 TO 150
VISIBILITY
9SM
RUNWAY VISUAL RANGE
NOT REPORTED
WEATHER
CLOUDINESS
FEW110
TEMP / DEWPOINT
18 ºC / 11 ºC
ALTIMETER
29.56 in. Hg
RECENT WEATHER
NOT REPORTED
WIND SHEAR
NOT REPORTED
REMARKS
RMK AO1 SLP002
SEA LEVEL PRESSURE: hPa

CYNL

METAR CYNL 192300Z AUTO 31003KT 9SM FEW027 18/11 A2957 RMK AO1 SLP005
METAR
LOCATION
CYNL
DATE - TIME
192300Z
WIND
310 TRUE @ 3 KNOTS
VISIBILITY
9SM
RUNWAY VISUAL RANGE
NOT REPORTED
WEATHER
CLOUDINESS
FEW027
TEMP / DEWPOINT
18 ºC / 11 ºC
ALTIMETER
29.57 in. Hg
RECENT WEATHER
NOT REPORTED
WIND SHEAR
NOT REPORTED
REMARKS
RMK AO1 SLP005
SEA LEVEL PRESSURE: hPa

CYNL

METAR CYNL 192200Z AUTO 28004KT 9SM FEW190 17/12 A2957 RMK AO1 SLP008
METAR
LOCATION
CYNL
DATE - TIME
192200Z
WIND
280 TRUE @ 4 KNOTS
VISIBILITY
9SM
RUNWAY VISUAL RANGE
NOT REPORTED
WEATHER
CLOUDINESS
FEW190
TEMP / DEWPOINT
17 ºC / 12 ºC
ALTIMETER
29.57 in. Hg
RECENT WEATHER
NOT REPORTED
WIND SHEAR
NOT REPORTED
REMARKS
RMK AO1 SLP008
SEA LEVEL PRESSURE: hPa

Your time UTC time
 
 
Weather data provided by AXYS Technologies Inc., www.axystechnologies.com
 
Station History